EST,Max TemperatureF,Mean TemperatureF,Min TemperatureF,Max Dew PointF,MeanDew PointF,Min DewpointF,Max Humidity, Mean Humidity, Min Humidity, Max Sea Level PressureIn, Mean Sea Level PressureIn, Min Sea Level PressureIn, Max VisibilityMiles, Mean VisibilityMiles, Min VisibilityMiles, Max Wind SpeedMPH, Mean Wind SpeedMPH, Max Gust SpeedMPH,PrecipitationIn, CloudCover, Events, WindDirDegrees
2011-11-1,60,50,39,37,35,34,79,60,40,30.32,30.29,30.27,10,10,10,7,3,10,0.01,4,Rain,131
2011-11-2,66,49,32,40,34,29,89,60,31,30.33,30.24,30.12,10,10,9,14,5,24,0.00,2,,169
2011-11-3,64,53,41,44,39,34,82,61,40,30.11,30.01,29.93,10,10,10,16,7,21,0.00,7,,305
2011-11-4,50,40,29,38,28,23,85,64,42,30.38,30.21,30.04,10,10,10,21,8,24,0.00,3,,4
2011-11-5,51,38,25,27,24,22,81,60,38,30.51,30.44,30.38,10,10,10,9,2,12,0.00,0,,112
2011-11-6,61,44,27,28,23,19,75,49,22,30.42,30.34,30.26,10,10,10,14,6,17,0.00,2,,181
2011-11-7,66,48,30,45,37,26,85,65,44,30.27,30.24,30.19,10,10,10,13,3,16,0.00,5,,118
2011-11-8,67,56,44,50,47,42,86,71,56,30.25,30.20,30.12,10,10,7,9,3,12,T,5,Fog,115
2011-11-9,71,54,36,44,35,28,92,59,26,30.12,29.97,29.80,10,10,8,25,9,36,0.00,4,Fog,181
2011-11-10,59,51,42,47,38,33,80,59,37,29.91,29.84,29.73,10,10,10,21,9,31,0.02,8,Rain,307
2011-11-11,42,39,35,36,32,29,85,78,70,29.91,29.74,29.67,10,8,2,33,14,43,0.23,7,Rain-Snow,293
2011-11-12,56,47,37,33,30,26,76,57,38,29.97,29.93,29.89,10,10,10,24,9,30,0.00,4,,232
2011-11-13,64,54,43,38,32,29,62,46,29,29.97,29.84,29.70,10,10,10,23,11,31,0.00,5,,195
2011-11-14,63,59,55,54,48,39,93,68,42,29.74,29.66,29.57,10,8,1,22,12,29,0.94,8,Rain,202
2011-11-15,61,52,42,54,46,40,89,75,61,29.90,29.80,29.61,10,10,6,24,5,31,0.01,7,Rain,273
2011-11-16,58,49,39,51,43,29,92,74,56,29.90,29.82,29.75,10,9,3,17,6,23,0.05,7,Fog-Rain,258
2011-11-17,44,39,33,30,26,17,75,60,44,30.01,29.93,29.89,10,9,2,22,13,28,T,7,Snow,285
2011-11-18,43,38,32,28,23,18,85,62,39,30.31,30.19,30.03,10,7,1,25,14,33,0.03,6,Snow,269
2011-11-19,60,49,38,30,20,16,46,33,19,30.21,30.13,30.00,10,10,10,21,10,25,T,7,Rain,202
2011-11-20,63,51,38,47,39,26,71,55,38,30.24,30.04,29.92,10,10,10,24,12,32,T,7,,274
2011-11-21,42,34,26,28,23,21,76,61,45,30.40,30.35,30.26,10,10,10,13,4,15,0.00,4,,339
2011-11-22,39,31,23,34,28,19,92,76,59,30.42,30.19,29.91,10,8,3,17,6,24,0.73,7,Rain,96
2011-11-23,42,39,35,39,34,30,92,87,82,30.11,29.85,29.63,10,9,2,22,10,30,0.60,8,Rain,31
2011-11-24,52,41,30,40,33,28,92,78,63,30.15,30.12,30.09,10,8,2,14,3,18,0.00,6,Fog,20
2011-11-25,64,47,29,39,32,26,92,64,36,30.12,30.07,29.99,10,6,0,17,7,21,0.00,5,Fog,202
2011-11-26,61,51,40,36,34,32,79,59,39,30.14,30.10,30.06,10,10,10,14,6,16,0.00,6,,229
2011-11-27,64,55,45,48,40,34,72,58,43,30.07,29.96,29.88,10,10,10,24,10,33,0.03,7,Rain,195
2011-11-28,62,54,45,51,44,41,93,77,60,30.14,30.05,29.90,10,8,0,21,6,26,0.15,8,Fog-Rain,326
2011-11-29,66,57,47,57,52,45,93,83,72,29.99,29.77,29.47,10,9,2,18,8,24,0.42,8,Rain,116
2011-11-30,56,44,31,43,33,22,83,71,58,30.07,29.70,29.45,10,9,2,28,13,39,0.14,7,Rain-Snow,278